sensor_id;sensor_type;location;lat;lon;timestamp;P1;durP1;ratioP1;P2;durP2;ratioP2
47535;SDS011;33278;50.826;9.030;2022-08-05T00:00:30;2.35;;;2.10;;
47535;SDS011;33278;50.826;9.030;2022-08-05T00:03:00;3.47;;;2.40;;
47535;SDS011;33278;50.826;9.030;2022-08-05T00:05:31;4.47;;;2.60;;
47535;SDS011;33278;50.826;9.030;2022-08-05T00:08:01;3.10;;;2.50;;
47535;SDS011;33278;50.826;9.030;2022-08-05T00:10:31;3.40;;;2.50;;
47535;SDS011;33278;50.826;9.030;2022-08-05T00:13:01;2.60;;;2.10;;
47535;SDS011;33278;50.826;9.030;2022-08-05T00:15:32;5.13;;;2.08;;
47535;SDS011;33278;50.826;9.030;2022-08-05T00:18:02;2.75;;;2.42;;
47535;SDS011;33278;50.826;9.030;2022-08-05T00:20:32;3.30;;;2.42;;
47535;SDS011;33278;50.826;9.030;2022-08-05T00:23:03;3.22;;;2.42;;
47535;SDS011;33278;50.826;9.030;2022-08-05T00:25:33;3.35;;;2.47;;
47535;SDS011;33278;50.826;9.030;2022-08-05T00:28:03;4.60;;;2.78;;
47535;SDS011;33278;50.826;9.030;2022-08-05T00:30:34;3.70;;;2.70;;
47535;SDS011;33278;50.826;9.030;2022-08-05T00:33:04;4.60;;;2.30;;
47535;SDS011;33278;50.826;9.030;2022-08-05T00:35:34;4.40;;;2.92;;
47535;SDS011;33278;50.826;9.030;2022-08-05T00:38:05;3.10;;;2.70;;
47535;SDS011;33278;50.826;9.030;2022-08-05T00:40:44;3.33;;;2.67;;
47535;SDS011;33278;50.826;9.030;2022-08-05T00:43:19;3.03;;;2.20;;
47535;SDS011;33278;50.826;9.030;2022-08-05T00:45:50;3.97;;;2.40;;
47535;SDS011;33278;50.826;9.030;2022-08-05T00:48:21;3.35;;;2.50;;
47535;SDS011;33278;50.826;9.030;2022-08-05T00:50:52;5.03;;;2.65;;
47535;SDS011;33278;50.826;9.030;2022-08-05T00:53:22;6.50;;;2.95;;
47535;SDS011;33278;50.826;9.030;2022-08-05T00:55:53;3.03;;;2.50;;
47535;SDS011;33278;50.826;9.030;2022-08-05T00:58:23;2.95;;;2.67;;
47535;SDS011;33278;50.826;9.030;2022-08-05T01:00:53;4.07;;;2.85;;
47535;SDS011;33278;50.826;9.030;2022-08-05T01:03:24;3.03;;;2.45;;
47535;SDS011;33278;50.826;9.030;2022-08-05T01:05:54;4.00;;;2.70;;
47535;SDS011;33278;50.826;9.030;2022-08-05T01:08:25;2.60;;;2.40;;
47535;SDS011;33278;50.826;9.030;2022-08-05T01:10:56;3.95;;;2.17;;
47535;SDS011;33278;50.826;9.030;2022-08-05T01:16:20;2.67;;;2.47;;
47535;SDS011;33278;50.826;9.030;2022-08-05T01:19:01;4.32;;;3.22;;
47535;SDS011;33278;50.826;9.030;2022-08-05T01:30:31;4.45;;;2.70;;
47535;SDS011;33278;50.826;9.030;2022-08-05T01:33:06;4.60;;;3.33;;
47535;SDS011;33278;50.826;9.030;2022-08-05T01:35:38;5.38;;;3.03;;
47535;SDS011;33278;50.826;9.030;2022-08-05T01:38:12;4.53;;;3.65;;
47535;SDS011;33278;50.826;9.030;2022-08-05T01:40:44;4.57;;;3.50;;
47535;SDS011;33278;50.826;9.030;2022-08-05T01:43:16;3.95;;;3.00;;
47535;SDS011;33278;50.826;9.030;2022-08-05T01:45:47;5.00;;;3.42;;
47535;SDS011;33278;50.826;9.030;2022-08-05T01:48:18;4.10;;;3.50;;
47535;SDS011;33278;50.826;9.030;2022-08-05T01:50:50;5.77;;;3.40;;
47535;SDS011;33278;50.826;9.030;2022-08-05T01:53:21;3.35;;;2.75;;
47535;SDS011;33278;50.826;9.030;2022-08-05T01:58:27;3.35;;;3.05;;
47535;SDS011;33278;50.826;9.030;2022-08-05T02:01:00;4.47;;;2.90;;
47535;SDS011;33278;50.826;9.030;2022-08-05T02:03:35;4.60;;;3.17;;
47535;SDS011;33278;50.826;9.030;2022-08-05T02:06:08;4.82;;;2.92;;
47535;SDS011;33278;50.826;9.030;2022-08-05T02:08:39;3.97;;;3.17;;
47535;SDS011;33278;50.826;9.030;2022-08-05T02:11:10;4.43;;;3.13;;
47535;SDS011;33278;50.826;9.030;2022-08-05T02:13:44;3.47;;;2.70;;
47535;SDS011;33278;50.826;9.030;2022-08-05T02:19:19;4.22;;;3.50;;
47535;SDS011;33278;50.826;9.030;2022-08-05T02:22:01;3.25;;;2.90;;
47535;SDS011;33278;50.826;9.030;2022-08-05T02:27:15;3.85;;;3.05;;
47535;SDS011;33278;50.826;9.030;2022-08-05T02:29:48;4.85;;;3.38;;
47535;SDS011;33278;50.826;9.030;2022-08-05T02:32:22;4.60;;;3.08;;
47535;SDS011;33278;50.826;9.030;2022-08-05T02:34:59;4.63;;;2.83;;
47535;SDS011;33278;50.826;9.030;2022-08-05T02:37:32;3.25;;;2.72;;
47535;SDS011;33278;50.826;9.030;2022-08-05T02:40:03;4.82;;;2.83;;
47535;SDS011;33278;50.826;9.030;2022-08-05T02:42:35;3.50;;;3.10;;
47535;SDS011;33278;50.826;9.030;2022-08-05T02:45:08;3.33;;;2.97;;
47535;SDS011;33278;50.826;9.030;2022-08-05T02:47:39;3.63;;;3.25;;
47535;SDS011;33278;50.826;9.030;2022-08-05T02:50:11;3.72;;;2.83;;
47535;SDS011;33278;50.826;9.030;2022-08-05T02:52:43;4.32;;;3.17;;
47535;SDS011;33278;50.826;9.030;2022-08-05T02:55:15;3.90;;;3.50;;
47535;SDS011;33278;50.826;9.030;2022-08-05T02:57:46;4.28;;;3.05;;
47535;SDS011;33278;50.826;9.030;2022-08-05T03:02:49;3.13;;;2.53;;
47535;SDS011;33278;50.826;9.030;2022-08-05T03:05:21;3.15;;;2.70;;
47535;SDS011;33278;50.826;9.030;2022-08-05T03:07:52;3.47;;;2.42;;
47535;SDS011;33278;50.826;9.030;2022-08-05T03:10:23;2.90;;;2.53;;
47535;SDS011;33278;50.826;9.030;2022-08-05T03:12:54;3.10;;;2.80;;
47535;SDS011;33278;50.826;9.030;2022-08-05T03:15:24;3.03;;;2.53;;
47535;SDS011;33278;50.826;9.030;2022-08-05T03:17:55;3.70;;;3.33;;
47535;SDS011;33278;50.826;9.030;2022-08-05T03:20:25;4.00;;;2.83;;
47535;SDS011;33278;50.826;9.030;2022-08-05T03:22:55;3.67;;;3.28;;
47535;SDS011;33278;50.826;9.030;2022-08-05T03:25:27;4.05;;;2.85;;
47535;SDS011;33278;50.826;9.030;2022-08-05T03:27:57;3.65;;;3.13;;
47535;SDS011;33278;50.826;9.030;2022-08-05T03:30:29;4.45;;;3.65;;
47535;SDS011;33278;50.826;9.030;2022-08-05T03:33:04;2.97;;;2.78;;
47535;SDS011;33278;50.826;9.030;2022-08-05T03:35:35;3.70;;;3.35;;
47535;SDS011;33278;50.826;9.030;2022-08-05T03:38:05;3.85;;;3.50;;
47535;SDS011;33278;50.826;9.030;2022-08-05T03:40:38;3.78;;;3.47;;
47535;SDS011;33278;50.826;9.030;2022-08-05T03:43:09;4.07;;;3.40;;
47535;SDS011;33278;50.826;9.030;2022-08-05T03:45:40;4.85;;;3.15;;
47535;SDS011;33278;50.826;9.030;2022-08-05T03:48:10;4.78;;;3.70;;
47535;SDS011;33278;50.826;9.030;2022-08-05T03:50:51;5.78;;;3.67;;
47535;SDS011;33278;50.826;9.030;2022-08-05T03:53:42;3.90;;;3.50;;
47535;SDS011;33278;50.826;9.030;2022-08-05T03:56:37;3.50;;;3.20;;
47535;SDS011;33278;50.826;9.030;2022-08-05T03:59:15;4.25;;;3.40;;
47535;SDS011;33278;50.826;9.030;2022-08-05T04:01:52;3.90;;;3.45;;
47535;SDS011;33278;50.826;9.030;2022-08-05T04:04:26;5.57;;;3.20;;
47535;SDS011;33278;50.826;9.030;2022-08-05T04:06:58;4.25;;;3.55;;
47535;SDS011;33278;50.826;9.030;2022-08-05T04:09:29;3.53;;;3.22;;
47535;SDS011;33278;50.826;9.030;2022-08-05T04:12:00;3.80;;;3.40;;
47535;SDS011;33278;50.826;9.030;2022-08-05T04:14:31;3.33;;;3.03;;
47535;SDS011;33278;50.826;9.030;2022-08-05T04:17:02;3.70;;;3.33;;
47535;SDS011;33278;50.826;9.030;2022-08-05T04:19:40;5.15;;;3.58;;
47535;SDS011;33278;50.826;9.030;2022-08-05T04:22:14;4.85;;;3.92;;
47535;SDS011;33278;50.826;9.030;2022-08-05T04:24:45;4.00;;;3.00;;
47535;SDS011;33278;50.826;9.030;2022-08-05T04:27:16;4.32;;;3.75;;
47535;SDS011;33278;50.826;9.030;2022-08-05T04:29:46;3.33;;;3.03;;
47535;SDS011;33278;50.826;9.030;2022-08-05T04:32:16;4.82;;;3.40;;
47535;SDS011;33278;50.826;9.030;2022-08-05T04:34:46;3.67;;;3.38;;
47535;SDS011;33278;50.826;9.030;2022-08-05T04:37:17;3.97;;;3.50;;
47535;SDS011;33278;50.826;9.030;2022-08-05T04:39:47;5.13;;;3.67;;
47535;SDS011;33278;50.826;9.030;2022-08-05T04:42:18;7.90;;;3.28;;
47535;SDS011;33278;50.826;9.030;2022-08-05T04:44:49;3.58;;;2.95;;
47535;SDS011;33278;50.826;9.030;2022-08-05T04:47:19;4.57;;;3.33;;
47535;SDS011;33278;50.826;9.030;2022-08-05T04:49:49;5.18;;;3.50;;
47535;SDS011;33278;50.826;9.030;2022-08-05T04:52:19;3.97;;;3.22;;
47535;SDS011;33278;50.826;9.030;2022-08-05T04:54:50;4.07;;;3.55;;
47535;SDS011;33278;50.826;9.030;2022-08-05T04:57:20;3.67;;;3.33;;
47535;SDS011;33278;50.826;9.030;2022-08-05T04:59:50;4.78;;;3.35;;
47535;SDS011;33278;50.826;9.030;2022-08-05T05:02:20;3.53;;;3.22;;
47535;SDS011;33278;50.826;9.030;2022-08-05T05:04:51;4.45;;;3.47;;
47535;SDS011;33278;50.826;9.030;2022-08-05T05:07:21;4.03;;;2.97;;
47535;SDS011;33278;50.826;9.030;2022-08-05T05:09:51;3.45;;;3.15;;
47535;SDS011;33278;50.826;9.030;2022-08-05T05:12:22;3.80;;;3.35;;
47535;SDS011;33278;50.826;9.030;2022-08-05T05:14:53;3.42;;;3.05;;
47535;SDS011;33278;50.826;9.030;2022-08-05T05:17:23;5.30;;;3.75;;
47535;SDS011;33278;50.826;9.030;2022-08-05T05:19:53;3.70;;;3.00;;
47535;SDS011;33278;50.826;9.030;2022-08-05T05:22:24;3.80;;;3.38;;
47535;SDS011;33278;50.826;9.030;2022-08-05T05:24:54;3.85;;;3.45;;
47535;SDS011;33278;50.826;9.030;2022-08-05T05:27:28;4.40;;;4.00;;
47535;SDS011;33278;50.826;9.030;2022-08-05T05:30:00;3.72;;;3.33;;
47535;SDS011;33278;50.826;9.030;2022-08-05T05:32:30;3.95;;;2.92;;
47535;SDS011;33278;50.826;9.030;2022-08-05T05:35:01;4.13;;;3.58;;
47535;SDS011;33278;50.826;9.030;2022-08-05T05:37:31;3.95;;;3.55;;
47535;SDS011;33278;50.826;9.030;2022-08-05T05:40:02;3.95;;;3.55;;
47535;SDS011;33278;50.826;9.030;2022-08-05T05:42:32;5.05;;;4.60;;
47535;SDS011;33278;50.826;9.030;2022-08-05T05:45:02;6.40;;;4.70;;
47535;SDS011;33278;50.826;9.030;2022-08-05T05:47:33;7.38;;;6.35;;
47535;SDS011;33278;50.826;9.030;2022-08-05T05:50:05;5.68;;;5.28;;
47535;SDS011;33278;50.826;9.030;2022-08-05T05:55:11;6.28;;;5.45;;
47535;SDS011;33278;50.826;9.030;2022-08-05T05:57:44;6.90;;;6.03;;
47535;SDS011;33278;50.826;9.030;2022-08-05T06:00:18;7.55;;;5.28;;
47535;SDS011;33278;50.826;9.030;2022-08-05T06:02:49;6.47;;;5.93;;
47535;SDS011;33278;50.826;9.030;2022-08-05T06:05:19;7.10;;;5.30;;
47535;SDS011;33278;50.826;9.030;2022-08-05T06:07:50;8.43;;;5.78;;
47535;SDS011;33278;50.826;9.030;2022-08-05T06:10:20;6.43;;;5.82;;
47535;SDS011;33278;50.826;9.030;2022-08-05T06:12:50;7.43;;;6.70;;
47535;SDS011;33278;50.826;9.030;2022-08-05T06:15:21;6.32;;;5.82;;
47535;SDS011;33278;50.826;9.030;2022-08-05T06:17:51;6.03;;;5.43;;
47535;SDS011;33278;50.826;9.030;2022-08-05T06:20:21;7.90;;;5.40;;
47535;SDS011;33278;50.826;9.030;2022-08-05T06:22:52;7.05;;;6.45;;
47535;SDS011;33278;50.826;9.030;2022-08-05T06:25:22;7.82;;;5.75;;
47535;SDS011;33278;50.826;9.030;2022-08-05T06:27:52;7.22;;;6.18;;
47535;SDS011;33278;50.826;9.030;2022-08-05T06:30:23;7.15;;;6.45;;
47535;SDS011;33278;50.826;9.030;2022-08-05T06:32:55;6.47;;;5.88;;
47535;SDS011;33278;50.826;9.030;2022-08-05T06:35:25;6.40;;;5.80;;
47535;SDS011;33278;50.826;9.030;2022-08-05T06:37:56;6.47;;;5.88;;
47535;SDS011;33278;50.826;9.030;2022-08-05T06:40:26;7.30;;;6.60;;
47535;SDS011;33278;50.826;9.030;2022-08-05T06:42:56;7.28;;;6.57;;
47535;SDS011;33278;50.826;9.030;2022-08-05T06:45:26;6.90;;;6.00;;
47535;SDS011;33278;50.826;9.030;2022-08-05T06:47:57;6.20;;;5.68;;
47535;SDS011;33278;50.826;9.030;2022-08-05T06:50:27;6.40;;;5.82;;
47535;SDS011;33278;50.826;9.030;2022-08-05T06:52:57;7.43;;;6.63;;
47535;SDS011;33278;50.826;9.030;2022-08-05T06:55:28;7.45;;;6.78;;
47535;SDS011;33278;50.826;9.030;2022-08-05T06:57:58;8.05;;;7.35;;
47535;SDS011;33278;50.826;9.030;2022-08-05T07:00:28;7.68;;;7.00;;
47535;SDS011;33278;50.826;9.030;2022-08-05T07:03:00;7.32;;;6.72;;
47535;SDS011;33278;50.826;9.030;2022-08-05T07:05:30;8.52;;;7.30;;
47535;SDS011;33278;50.826;9.030;2022-08-05T07:08:00;8.13;;;7.32;;
47535;SDS011;33278;50.826;9.030;2022-08-05T07:10:31;8.18;;;7.38;;
47535;SDS011;33278;50.826;9.030;2022-08-05T07:13:01;8.95;;;6.25;;
47535;SDS011;33278;50.826;9.030;2022-08-05T07:15:51;7.40;;;6.75;;
47535;SDS011;33278;50.826;9.030;2022-08-05T07:18:40;7.22;;;6.63;;
47535;SDS011;33278;50.826;9.030;2022-08-05T07:21:10;9.38;;;7.25;;
47535;SDS011;33278;50.826;9.030;2022-08-05T07:23:41;8.38;;;7.57;;
47535;SDS011;33278;50.826;9.030;2022-08-05T07:26:11;8.05;;;7.25;;
47535;SDS011;33278;50.826;9.030;2022-08-05T07:28:42;6.60;;;6.00;;
47535;SDS011;33278;50.826;9.030;2022-08-05T07:31:12;8.60;;;6.93;;
47535;SDS011;33278;50.826;9.030;2022-08-05T07:33:42;7.00;;;6.32;;
47535;SDS011;33278;50.826;9.030;2022-08-05T07:36:13;11.00;;;5.78;;
47535;SDS011;33278;50.826;9.030;2022-08-05T07:38:43;7.15;;;6.57;;
47535;SDS011;33278;50.826;9.030;2022-08-05T07:41:14;6.53;;;5.93;;
47535;SDS011;33278;50.826;9.030;2022-08-05T07:43:47;6.32;;;5.32;;
47535;SDS011;33278;50.826;9.030;2022-08-05T07:46:17;7.35;;;6.72;;
47535;SDS011;33278;50.826;9.030;2022-08-05T07:48:48;7.22;;;5.95;;
47535;SDS011;33278;50.826;9.030;2022-08-05T07:51:18;6.22;;;5.63;;
47535;SDS011;33278;50.826;9.030;2022-08-05T07:53:49;8.27;;;6.47;;
47535;SDS011;33278;50.826;9.030;2022-08-05T07:56:20;9.25;;;5.75;;
47535;SDS011;33278;50.826;9.030;2022-08-05T07:58:50;7.07;;;6.45;;
47535;SDS011;33278;50.826;9.030;2022-08-05T08:01:20;9.38;;;6.60;;
47535;SDS011;33278;50.826;9.030;2022-08-05T08:03:54;6.90;;;6.30;;
47535;SDS011;33278;50.826;9.030;2022-08-05T08:06:24;6.53;;;6.03;;
47535;SDS011;33278;50.826;9.030;2022-08-05T08:08:54;6.82;;;6.07;;
47535;SDS011;33278;50.826;9.030;2022-08-05T08:11:24;6.88;;;6.18;;
47535;SDS011;33278;50.826;9.030;2022-08-05T08:13:55;7.07;;;6.38;;
47535;SDS011;33278;50.826;9.030;2022-08-05T08:16:25;10.63;;;6.90;;
47535;SDS011;33278;50.826;9.030;2022-08-05T08:18:55;7.05;;;5.88;;
47535;SDS011;33278;50.826;9.030;2022-08-05T08:21:26;7.40;;;5.50;;
47535;SDS011;33278;50.826;9.030;2022-08-05T08:23:56;6.25;;;5.57;;
47535;SDS011;33278;50.826;9.030;2022-08-05T08:26:26;5.85;;;5.20;;
47535;SDS011;33278;50.826;9.030;2022-08-05T08:28:58;7.13;;;5.50;;
47535;SDS011;33278;50.826;9.030;2022-08-05T08:31:28;6.55;;;5.88;;
47535;SDS011;33278;50.826;9.030;2022-08-05T08:33:59;5.45;;;5.05;;
47535;SDS011;33278;50.826;9.030;2022-08-05T08:36:29;5.65;;;5.15;;
47535;SDS011;33278;50.826;9.030;2022-08-05T08:38:59;5.72;;;5.18;;
47535;SDS011;33278;50.826;9.030;2022-08-05T08:41:31;5.55;;;5.13;;
47535;SDS011;33278;50.826;9.030;2022-08-05T08:44:04;5.38;;;4.55;;
47535;SDS011;33278;50.826;9.030;2022-08-05T08:46:36;6.18;;;4.97;;
47535;SDS011;33278;50.826;9.030;2022-08-05T08:49:06;4.97;;;4.40;;
47535;SDS011;33278;50.826;9.030;2022-08-05T08:51:38;6.65;;;4.85;;
47535;SDS011;33278;50.826;9.030;2022-08-05T08:54:10;5.57;;;4.50;;
47535;SDS011;33278;50.826;9.030;2022-08-05T08:56:41;4.13;;;3.72;;
47535;SDS011;33278;50.826;9.030;2022-08-05T08:59:11;5.22;;;4.10;;
47535;SDS011;33278;50.826;9.030;2022-08-05T09:01:42;4.60;;;4.20;;
47535;SDS011;33278;50.826;9.030;2022-08-05T09:04:13;8.37;;;4.03;;
47535;SDS011;33278;50.826;9.030;2022-08-05T09:06:45;5.05;;;4.00;;
47535;SDS011;33278;50.826;9.030;2022-08-05T09:09:15;4.43;;;4.03;;
47535;SDS011;33278;50.826;9.030;2022-08-05T09:11:45;5.35;;;3.50;;
47535;SDS011;33278;50.826;9.030;2022-08-05T09:14:16;4.75;;;3.78;;
47535;SDS011;33278;50.826;9.030;2022-08-05T09:16:46;4.25;;;3.85;;
47535;SDS011;33278;50.826;9.030;2022-08-05T09:19:17;4.75;;;3.67;;
47535;SDS011;33278;50.826;9.030;2022-08-05T09:21:47;4.00;;;3.65;;
47535;SDS011;33278;50.826;9.030;2022-08-05T09:24:18;4.90;;;3.88;;
47535;SDS011;33278;50.826;9.030;2022-08-05T09:26:52;5.68;;;4.10;;
47535;SDS011;33278;50.826;9.030;2022-08-05T09:32:37;4.13;;;3.30;;
47535;SDS011;33278;50.826;9.030;2022-08-05T09:35:15;8.52;;;3.60;;
47535;SDS011;33278;50.826;9.030;2022-08-05T09:37:49;3.95;;;3.00;;
47535;SDS011;33278;50.826;9.030;2022-08-05T09:40:36;7.10;;;3.22;;
47535;SDS011;33278;50.826;9.030;2022-08-05T09:43:25;4.40;;;4.00;;
47535;SDS011;33278;50.826;9.030;2022-08-05T09:45:57;4.47;;;4.07;;
47535;SDS011;33278;50.826;9.030;2022-08-05T09:48:30;8.85;;;3.30;;
47535;SDS011;33278;50.826;9.030;2022-08-05T09:51:05;5.85;;;3.85;;
47535;SDS011;33278;50.826;9.030;2022-08-05T09:53:47;4.28;;;2.92;;
47535;SDS011;33278;50.826;9.030;2022-08-05T09:59:01;4.28;;;3.15;;
47535;SDS011;33278;50.826;9.030;2022-08-05T10:01:32;4.55;;;2.92;;
47535;SDS011;33278;50.826;9.030;2022-08-05T10:04:06;5.53;;;3.47;;
47535;SDS011;33278;50.826;9.030;2022-08-05T10:06:40;5.22;;;3.17;;
47535;SDS011;33278;50.826;9.030;2022-08-05T10:11:44;2.88;;;2.65;;
47535;SDS011;33278;50.826;9.030;2022-08-05T10:14:24;4.55;;;3.42;;
47535;SDS011;33278;50.826;9.030;2022-08-05T10:17:10;3.08;;;2.83;;
47535;SDS011;33278;50.826;9.030;2022-08-05T10:19:42;3.40;;;3.10;;
47535;SDS011;33278;50.826;9.030;2022-08-05T10:22:13;5.72;;;2.75;;
47535;SDS011;33278;50.826;9.030;2022-08-05T10:24:44;3.45;;;3.15;;
47535;SDS011;33278;50.826;9.030;2022-08-05T10:27:15;3.80;;;3.05;;
47535;SDS011;33278;50.826;9.030;2022-08-05T10:29:45;3.40;;;3.10;;
47535;SDS011;33278;50.826;9.030;2022-08-05T10:32:15;3.35;;;3.05;;
47535;SDS011;33278;50.826;9.030;2022-08-05T10:34:46;3.10;;;2.80;;
47535;SDS011;33278;50.826;9.030;2022-08-05T10:37:17;3.75;;;3.42;;
47535;SDS011;33278;50.826;9.030;2022-08-05T10:39:47;3.85;;;2.90;;
47535;SDS011;33278;50.826;9.030;2022-08-05T10:42:21;3.67;;;3.10;;
47535;SDS011;33278;50.826;9.030;2022-08-05T10:44:54;2.78;;;2.58;;
47535;SDS011;33278;50.826;9.030;2022-08-05T10:47:31;3.50;;;3.17;;
47535;SDS011;33278;50.826;9.030;2022-08-05T10:50:07;4.45;;;2.80;;
47535;SDS011;33278;50.826;9.030;2022-08-05T10:52:46;2.70;;;2.50;;
47535;SDS011;33278;50.826;9.030;2022-08-05T10:55:23;2.95;;;2.75;;
47535;SDS011;33278;50.826;9.030;2022-08-05T10:58:09;3.90;;;3.17;;
47535;SDS011;33278;50.826;9.030;2022-08-05T11:00:44;5.65;;;4.03;;
47535;SDS011;33278;50.826;9.030;2022-08-05T11:03:15;3.75;;;3.47;;
47535;SDS011;33278;50.826;9.030;2022-08-05T11:06:05;4.25;;;3.85;;
47535;SDS011;33278;50.826;9.030;2022-08-05T11:08:37;4.35;;;3.95;;
47535;SDS011;33278;50.826;9.030;2022-08-05T11:14:05;4.10;;;3.78;;
47535;SDS011;33278;50.826;9.030;2022-08-05T11:16:35;4.88;;;4.47;;
47535;SDS011;33278;50.826;9.030;2022-08-05T11:19:26;7.53;;;4.20;;
47535;SDS011;33278;50.826;9.030;2022-08-05T11:25:25;5.60;;;4.72;;
47535;SDS011;33278;50.826;9.030;2022-08-05T11:27:56;5.72;;;4.28;;
47535;SDS011;33278;50.826;9.030;2022-08-05T11:33:33;4.97;;;4.57;;
47535;SDS011;33278;50.826;9.030;2022-08-05T11:36:05;5.38;;;4.97;;
47535;SDS011;33278;50.826;9.030;2022-08-05T11:46:30;4.75;;;4.43;;
47535;SDS011;33278;50.826;9.030;2022-08-05T11:49:18;5.38;;;4.97;;
47535;SDS011;33278;50.826;9.030;2022-08-05T11:51:51;5.65;;;5.15;;
47535;SDS011;33278;50.826;9.030;2022-08-05T11:54:26;5.90;;;5.32;;
47535;SDS011;33278;50.826;9.030;2022-08-05T11:56:57;6.20;;;5.68;;
47535;SDS011;33278;50.826;9.030;2022-08-05T11:59:29;6.50;;;5.82;;
47535;SDS011;33278;50.826;9.030;2022-08-05T12:02:06;7.50;;;5.30;;
47535;SDS011;33278;50.826;9.030;2022-08-05T12:07:10;7.63;;;6.95;;
47535;SDS011;33278;50.826;9.030;2022-08-05T12:09:42;7.78;;;7.05;;
47535;SDS011;33278;50.826;9.030;2022-08-05T12:12:23;9.00;;;8.30;;
47535;SDS011;33278;50.826;9.030;2022-08-05T12:14:56;9.15;;;8.35;;
47535;SDS011;33278;50.826;9.030;2022-08-05T12:17:27;9.43;;;8.68;;
47535;SDS011;33278;50.826;9.030;2022-08-05T12:20:05;10.10;;;8.98;;
47535;SDS011;33278;50.826;9.030;2022-08-05T12:22:35;9.50;;;8.70;;
47535;SDS011;33278;50.826;9.030;2022-08-05T12:25:06;12.30;;;11.35;;
47535;SDS011;33278;50.826;9.030;2022-08-05T12:27:37;11.40;;;10.50;;
47535;SDS011;33278;50.826;9.030;2022-08-05T12:30:11;11.60;;;10.60;;
47535;SDS011;33278;50.826;9.030;2022-08-05T12:32:43;12.20;;;11.20;;
47535;SDS011;33278;50.826;9.030;2022-08-05T12:35:16;13.65;;;12.60;;
47535;SDS011;33278;50.826;9.030;2022-08-05T12:37:47;13.63;;;12.52;;
47535;SDS011;33278;50.826;9.030;2022-08-05T12:40:18;14.48;;;11.60;;
47535;SDS011;33278;50.826;9.030;2022-08-05T12:42:54;13.07;;;11.98;;
47535;SDS011;33278;50.826;9.030;2022-08-05T12:45:24;12.18;;;11.13;;
47535;SDS011;33278;50.826;9.030;2022-08-05T12:47:55;11.70;;;10.63;;
47535;SDS011;33278;50.826;9.030;2022-08-05T12:50:25;11.68;;;10.75;;
47535;SDS011;33278;50.826;9.030;2022-08-05T12:52:56;11.57;;;10.57;;
47535;SDS011;33278;50.826;9.030;2022-08-05T12:55:30;11.02;;;10.20;;
47535;SDS011;33278;50.826;9.030;2022-08-05T12:58:00;12.13;;;11.13;;
47535;SDS011;33278;50.826;9.030;2022-08-05T13:00:31;11.50;;;10.40;;
47535;SDS011;33278;50.826;9.030;2022-08-05T13:03:03;11.57;;;10.68;;
47535;SDS011;33278;50.826;9.030;2022-08-05T13:05:34;10.85;;;10.02;;
47535;SDS011;33278;50.826;9.030;2022-08-05T13:08:06;10.50;;;9.50;;
47535;SDS011;33278;50.826;9.030;2022-08-05T13:10:41;10.73;;;9.85;;
47535;SDS011;33278;50.826;9.030;2022-08-05T13:13:12;10.20;;;9.20;;
47535;SDS011;33278;50.826;9.030;2022-08-05T13:15:42;10.00;;;9.20;;
47535;SDS011;33278;50.826;9.030;2022-08-05T13:18:19;9.88;;;9.07;;
47535;SDS011;33278;50.826;9.030;2022-08-05T13:20:50;10.05;;;9.25;;
47535;SDS011;33278;50.826;9.030;2022-08-05T13:23:20;9.07;;;8.27;;
47535;SDS011;33278;50.826;9.030;2022-08-05T13:25:51;8.60;;;7.88;;
47535;SDS011;33278;50.826;9.030;2022-08-05T13:28:21;7.75;;;7.05;;
47535;SDS011;33278;50.826;9.030;2022-08-05T13:30:51;8.02;;;7.32;;
47535;SDS011;33278;50.826;9.030;2022-08-05T13:33:21;6.95;;;6.35;;
47535;SDS011;33278;50.826;9.030;2022-08-05T13:35:52;6.40;;;5.90;;
47535;SDS011;33278;50.826;9.030;2022-08-05T13:38:22;5.65;;;5.25;;
47535;SDS011;33278;50.826;9.030;2022-08-05T13:40:53;6.53;;;5.93;;
47535;SDS011;33278;50.826;9.030;2022-08-05T13:43:23;5.13;;;4.63;;
47535;SDS011;33278;50.826;9.030;2022-08-05T13:45:53;6.50;;;5.15;;
47535;SDS011;33278;50.826;9.030;2022-08-05T13:48:24;5.10;;;4.70;;
47535;SDS011;33278;50.826;9.030;2022-08-05T13:50:54;5.40;;;5.00;;
47535;SDS011;33278;50.826;9.030;2022-08-05T13:53:24;4.50;;;4.10;;
47535;SDS011;33278;50.826;9.030;2022-08-05T13:55:55;4.00;;;3.70;;
47535;SDS011;33278;50.826;9.030;2022-08-05T13:58:25;4.30;;;3.90;;
47535;SDS011;33278;50.826;9.030;2022-08-05T14:00:56;4.43;;;4.03;;
47535;SDS011;33278;50.826;9.030;2022-08-05T14:03:27;4.57;;;3.88;;
47535;SDS011;33278;50.826;9.030;2022-08-05T14:05:57;4.03;;;3.72;;
47535;SDS011;33278;50.826;9.030;2022-08-05T14:08:28;3.97;;;3.67;;
47535;SDS011;33278;50.826;9.030;2022-08-05T14:10:58;3.72;;;3.42;;
47535;SDS011;33278;50.826;9.030;2022-08-05T14:13:28;3.35;;;3.05;;
47535;SDS011;33278;50.826;9.030;2022-08-05T14:15:59;2.75;;;2.55;;
47535;SDS011;33278;50.826;9.030;2022-08-05T14:18:29;3.55;;;3.00;;
47535;SDS011;33278;50.826;9.030;2022-08-05T14:20:59;3.17;;;2.90;;
47535;SDS011;33278;50.826;9.030;2022-08-05T14:23:30;3.08;;;2.78;;
47535;SDS011;33278;50.826;9.030;2022-08-05T14:26:00;2.95;;;2.70;;
47535;SDS011;33278;50.826;9.030;2022-08-05T14:28:30;2.80;;;2.20;;
47535;SDS011;33278;50.826;9.030;2022-08-05T14:31:00;2.42;;;2.22;;
47535;SDS011;33278;50.826;9.030;2022-08-05T14:33:31;4.65;;;2.30;;
47535;SDS011;33278;50.826;9.030;2022-08-05T14:36:02;1.80;;;1.67;;
47535;SDS011;33278;50.826;9.030;2022-08-05T14:38:33;4.03;;;2.10;;
47535;SDS011;33278;50.826;9.030;2022-08-05T14:41:04;2.53;;;1.80;;
47535;SDS011;33278;50.826;9.030;2022-08-05T14:43:35;3.85;;;2.05;;
47535;SDS011;33278;50.826;9.030;2022-08-05T14:46:06;2.83;;;2.08;;
47535;SDS011;33278;50.826;9.030;2022-08-05T14:48:36;2.08;;;1.85;;
47535;SDS011;33278;50.826;9.030;2022-08-05T14:51:07;1.55;;;1.45;;
47535;SDS011;33278;50.826;9.030;2022-08-05T14:53:37;1.50;;;1.40;;
47535;SDS011;33278;50.826;9.030;2022-08-05T14:56:07;5.10;;;1.42;;
47535;SDS011;33278;50.826;9.030;2022-08-05T14:58:38;1.55;;;1.45;;
47535;SDS011;33278;50.826;9.030;2022-08-05T15:01:08;1.17;;;1.17;;
47535;SDS011;33278;50.826;9.030;2022-08-05T15:03:39;1.23;;;1.13;;
47535;SDS011;33278;50.826;9.030;2022-08-05T15:06:10;2.47;;;1.48;;
47535;SDS011;33278;50.826;9.030;2022-08-05T15:08:40;1.20;;;1.20;;
47535;SDS011;33278;50.826;9.030;2022-08-05T15:11:11;2.15;;;1.50;;
47535;SDS011;33278;50.826;9.030;2022-08-05T15:13:41;1.85;;;1.30;;
47535;SDS011;33278;50.826;9.030;2022-08-05T15:16:12;2.22;;;1.02;;
47535;SDS011;33278;50.826;9.030;2022-08-05T15:18:42;1.67;;;1.30;;
47535;SDS011;33278;50.826;9.030;2022-08-05T15:21:13;1.45;;;1.17;;
47535;SDS011;33278;50.826;9.030;2022-08-05T15:23:43;1.35;;;1.25;;
47535;SDS011;33278;50.826;9.030;2022-08-05T15:26:13;1.50;;;1.30;;
47535;SDS011;33278;50.826;9.030;2022-08-05T15:28:46;1.48;;;1.38;;
47535;SDS011;33278;50.826;9.030;2022-08-05T15:31:16;1.50;;;1.38;;
47535;SDS011;33278;50.826;9.030;2022-08-05T15:33:46;1.92;;;1.30;;
47535;SDS011;33278;50.826;9.030;2022-08-05T15:36:17;1.77;;;1.45;;
47535;SDS011;33278;50.826;9.030;2022-08-05T15:38:47;2.05;;;1.58;;
47535;SDS011;33278;50.826;9.030;2022-08-05T15:41:18;1.30;;;1.17;;
47535;SDS011;33278;50.826;9.030;2022-08-05T15:43:51;1.48;;;1.38;;
47535;SDS011;33278;50.826;9.030;2022-08-05T15:46:22;1.35;;;1.25;;
47535;SDS011;33278;50.826;9.030;2022-08-05T15:48:52;2.63;;;1.60;;
47535;SDS011;33278;50.826;9.030;2022-08-05T15:51:24;2.42;;;1.40;;
47535;SDS011;33278;50.826;9.030;2022-08-05T15:53:55;2.28;;;1.60;;
47535;SDS011;33278;50.826;9.030;2022-08-05T15:56:25;1.02;;;1.00;;
47535;SDS011;33278;50.826;9.030;2022-08-05T15:58:55;4.57;;;1.98;;
47535;SDS011;33278;50.826;9.030;2022-08-05T16:01:26;3.80;;;1.30;;
47535;SDS011;33278;50.826;9.030;2022-08-05T16:03:56;2.72;;;1.67;;
47535;SDS011;33278;50.826;9.030;2022-08-05T16:06:26;3.53;;;1.40;;